Huambo, Albano Machado Airport (FNHU)

NameAlbano Machado Airport
CityHuambo
CountryAngola
ICAOFNHU
IATANOV
Altitude1703 m
CoordinatesGoogle Map
Live Air TrafficLiveATC.net
METARFNHU 141600Z VRB03KT 9999 SCT018 28/09 Q1019
2018-10-14 16:00:00 Wind: North (0°) 1.54 m/s - Visibility: > 10000 m - Temperature: 28 °C - Dew point: 9 °C - Humidity: 30.3% - Pressure: 1019 hPa
Statistics

The table below shows the detailed information of all flights to/from Huambo, Albano Machado Airport (FNHU).